Time;durP1;ratioP1;P1;durP2;ratioP2;P2;SDS_P1;SDS_P2;PMS_P1;PMS_P2;Temp;Humidity;BMP_temperature;BMP_pressure;BME280_temperature;BME280_humidity;BME280_pressure;Samples;Min_cycle;Max_cycle;Signal;HPM_P1;HPM_P2
2023/07/12 00:00:22;;;;;;;0.30;0.00;;;17.90;99.90;;;;;;5000776;28;20088;-64
2023/07/12 00:02:48;;;;;;;0.00;0.00;;;18.00;99.90;;;;;;5003611;28;20056;-65
2023/07/12 00:05:16;;;;;;;0.15;0.00;;;17.90;99.90;;;;;;5024324;28;20038;-64
2023/07/12 00:07:45;;;;;;;0.00;0.00;;;17.90;99.90;;;;;;5009284;28;20044;-65
2023/07/12 00:10:14;;;;;;;0.10;0.00;;;17.90;99.90;;;;;;5003854;28;20053;-65
2023/07/12 00:12:40;;;;;;;0.00;0.00;;;17.90;99.90;;;;;;5011300;28;20555;-65
2023/07/12 00:15:08;;;;;;;0.00;0.00;;;17.90;99.90;;;;;;5003501;28;20046;-65
2023/07/12 00:17:33;;;;;;;0.00;0.00;;;17.90;99.90;;;;;;5010672;28;20037;-65
2023/07/12 00:19:59;;;;;;;0.00;0.00;;;17.90;99.90;;;;;;5012788;28;20510;-65
2023/07/12 00:22:25;;;;;;;0.00;0.00;;;17.90;99.90;;;;;;5004915;28;20030;-65
2023/07/12 00:24:50;;;;;;;0.10;0.10;;;17.90;99.90;;;;;;5004900;28;20081;-66
2023/07/12 00:27:16;;;;;;;0.10;0.03;;;17.90;99.90;;;;;;5008351;28;20042;-64
2023/07/12 00:29:42;;;;;;;0.00;0.00;;;17.90;99.90;;;;;;5001033;28;20041;-65
2023/07/12 00:32:08;;;;;;;0.47;0.00;;;17.90;99.90;;;;;;5006948;28;20501;-64
2023/07/12 00:34:34;;;;;;;0.10;0.00;;;17.90;99.90;;;;;;5006605;28;20099;-64
2023/07/12 00:36:59;;;;;;;0.22;0.00;;;17.90;99.90;;;;;;5007803;28;20394;-64
2023/07/12 00:39:25;;;;;;;0.00;0.00;;;17.90;99.90;;;;;;4999985;28;20041;-65
2023/07/12 00:42:26;;;;;;;0.00;0.00;;;17.80;99.90;;;;;;4999573;28;20120;-66
2023/07/12 00:44:57;;;;;;;0.08;0.00;;;17.80;99.90;;;;;;5009650;28;20137;-65
2023/07/12 00:47:22;;;;;;;0.10;0.00;;;17.90;99.90;;;;;;5000533;28;20050;-65
2023/07/12 00:49:49;;;;;;;0.00;0.00;;;17.80;99.90;;;;;;4997885;28;20091;-64
2023/07/12 00:52:19;;;;;;;0.10;0.00;;;17.80;99.90;;;;;;5004555;28;20386;-65
2023/07/12 00:54:59;;;;;;;0.10;0.00;;;17.80;99.90;;;;;;5006633;28;20073;-64
2023/07/12 00:57:31;;;;;;;0.00;0.00;;;17.80;99.90;;;;;;4998575;28;20454;-65
2023/07/12 01:00:10;;;;;;;0.20;0.00;;;17.80;99.90;;;;;;5003027;28;20108;-65
2023/07/12 01:02:40;;;;;;;0.08;0.08;;;17.80;99.90;;;;;;5005855;28;20058;-65
2023/07/12 01:05:06;;;;;;;0.10;0.00;;;17.80;99.90;;;;;;5008187;28;20049;-65
2023/07/12 01:07:31;;;;;;;0.03;0.00;;;17.80;99.90;;;;;;4995876;28;20046;-64
2023/07/12 01:09:57;;;;;;;0.00;0.00;;;17.80;99.90;;;;;;5000077;28;20042;-64
2023/07/12 01:12:23;;;;;;;0.00;0.00;;;17.80;99.90;;;;;;5004150;28;20211;-64
2023/07/12 01:14:49;;;;;;;0.00;0.00;;;17.80;99.90;;;;;;5003056;28;20038;-64
2023/07/12 01:17:14;;;;;;;0.57;0.08;;;17.80;99.90;;;;;;4998323;28;20426;-64
2023/07/12 01:19:41;;;;;;;0.10;0.00;;;17.80;99.90;;;;;;5002539;28;20035;-65
2023/07/12 01:22:07;;;;;;;0.00;0.00;;;17.80;99.90;;;;;;5004152;28;20042;-64
2023/07/12 01:24:33;;;;;;;0.10;0.05;;;17.80;99.90;;;;;;5004502;28;20401;-65
2023/07/12 01:27:03;;;;;;;0.03;0.00;;;17.70;99.90;;;;;;4993671;28;20046;-64
2023/07/12 01:29:29;;;;;;;0.10;0.00;;;17.70;99.90;;;;;;5004038;28;20045;-65
2023/07/12 01:31:56;;;;;;;0.70;0.10;;;17.70;99.90;;;;;;5003628;28;20045;-64
2023/07/12 01:34:23;;;;;;;0.10;0.05;;;17.70;99.90;;;;;;5001219;28;20086;-64
2023/07/12 01:36:48;;;;;;;0.20;0.00;;;17.70;99.90;;;;;;4998627;28;20344;-64
2023/07/12 01:39:14;;;;;;;0.00;0.00;;;17.70;99.90;;;;;;5002803;28;20038;-64
2023/07/12 01:41:40;;;;;;;0.10;0.00;;;17.70;99.90;;;;;;5005216;28;20121;-65
2023/07/12 01:44:06;;;;;;;0.20;0.10;;;17.70;99.90;;;;;;5008148;28;20458;-65
2023/07/12 01:46:32;;;;;;;0.00;0.00;;;17.60;99.90;;;;;;5004656;28;20045;-64
2023/07/12 01:48:58;;;;;;;0.43;0.00;;;17.50;99.90;;;;;;4999905;28;20129;-65
2023/07/12 01:51:24;;;;;;;0.05;0.00;;;17.60;99.90;;;;;;5004337;28;20191;-65
2023/07/12 01:53:49;;;;;;;0.57;0.30;;;17.50;99.90;;;;;;4998964;28;20694;-65
2023/07/12 01:56:16;;;;;;;0.10;0.00;;;17.40;99.90;;;;;;4997954;28;20042;-65
2023/07/12 01:58:42;;;;;;;0.30;0.00;;;17.40;99.90;;;;;;5001555;28;20041;-64
2023/07/12 02:01:08;;;;;;;0.20;0.00;;;17.40;99.90;;;;;;5006184;28;20046;-65
2023/07/12 02:03:34;;;;;;;0.10;0.05;;;17.30;99.90;;;;;;4998923;28;20046;-65
2023/07/12 02:06:00;;;;;;;0.15;0.00;;;17.30;99.90;;;;;;5000032;28;20040;-65
2023/07/12 02:08:25;;;;;;;0.28;0.10;;;17.30;99.90;;;;;;5000747;28;20054;-64
2023/07/12 02:10:51;;;;;;;0.15;0.00;;;17.30;99.90;;;;;;5004736;28;20051;-65
2023/07/12 02:13:18;;;;;;;0.10;0.00;;;17.20;99.90;;;;;;5001955;28;20096;-65
2023/07/12 02:15:44;;;;;;;0.20;0.10;;;17.20;99.90;;;;;;5009457;28;20034;-64
2023/07/12 02:18:11;;;;;;;0.13;0.08;;;17.10;99.90;;;;;;5006452;28;20048;-64
2023/07/12 02:20:37;;;;;;;0.03;0.00;;;17.10;99.90;;;;;;4999946;28;20038;-65
2023/07/12 02:23:03;;;;;;;0.00;0.00;;;17.10;99.90;;;;;;5000943;28;20097;-64
2023/07/12 02:25:28;;;;;;;0.60;0.10;;;17.00;99.90;;;;;;4993998;28;20046;-64
2023/07/12 02:27:54;;;;;;;0.00;0.00;;;17.00;99.90;;;;;;5004768;28;20470;-65
2023/07/12 02:30:22;;;;;;;0.20;0.10;;;17.00;99.90;;;;;;5001399;28;20034;-65
2023/07/12 02:32:49;;;;;;;0.20;0.00;;;17.00;99.90;;;;;;4999356;28;20045;-65
2023/07/12 02:35:16;;;;;;;0.00;0.00;;;17.00;99.90;;;;;;4996072;28;20046;-65
2023/07/12 02:37:42;;;;;;;0.10;0.10;;;16.90;99.90;;;;;;5001641;28;20522;-65
2023/07/12 02:40:09;;;;;;;0.00;0.00;;;17.00;99.90;;;;;;5000122;28;20030;-65
2023/07/12 02:42:35;;;;;;;0.10;0.10;;;16.90;99.90;;;;;;5000904;28;20046;-67
2023/07/12 02:45:01;;;;;;;0.00;0.00;;;16.90;99.90;;;;;;4995169;28;20042;-67
2023/07/12 02:47:26;;;;;;;0.10;0.00;;;16.90;99.90;;;;;;5001320;28;20049;-67
2023/07/12 02:49:52;;;;;;;0.10;0.00;;;16.90;99.90;;;;;;5005757;28;20153;-68
2023/07/12 02:52:18;;;;;;;0.00;0.00;;;16.80;99.90;;;;;;4997249;28;20049;-68
2023/07/12 02:54:43;;;;;;;0.00;0.00;;;16.80;99.90;;;;;;4998080;28;20038;-67
2023/07/12 02:57:11;;;;;;;0.00;0.00;;;16.80;99.90;;;;;;5002323;28;20037;-68
2023/07/12 02:59:37;;;;;;;0.20;0.05;;;16.90;99.90;;;;;;4999409;28;20046;-68
2023/07/12 03:02:04;;;;;;;0.00;0.00;;;16.80;99.90;;;;;;5003311;28;20081;-68
2023/07/12 03:04:30;;;;;;;0.20;0.10;;;16.80;99.90;;;;;;5000630;28;20498;-68
2023/07/12 03:06:56;;;;;;;0.10;0.03;;;16.80;99.90;;;;;;5000806;28;20157;-67
2023/07/12 03:09:22;;;;;;;0.20;0.10;;;16.80;99.90;;;;;;5002289;28;20065;-67
2023/07/12 03:11:48;;;;;;;0.00;0.00;;;16.80;99.90;;;;;;4998814;28;20132;-68
2023/07/12 03:14:18;;;;;;;0.08;0.05;;;16.70;99.90;;;;;;5001455;28;20050;-68
2023/07/12 03:16:44;;;;;;;0.05;0.00;;;16.80;99.90;;;;;;5003878;28;20048;-68
2023/07/12 03:19:10;;;;;;;0.10;0.03;;;16.70;99.90;;;;;;4998728;28;20045;-68
2023/07/12 03:21:36;;;;;;;0.00;0.00;;;16.80;99.90;;;;;;4993973;28;20038;-68
2023/07/12 03:24:02;;;;;;;0.00;0.00;;;16.80;99.90;;;;;;4999643;28;20546;-68
2023/07/12 03:26:28;;;;;;;0.10;0.00;;;16.70;99.90;;;;;;5000453;28;20491;-68
2023/07/12 03:28:55;;;;;;;0.00;0.00;;;16.80;99.90;;;;;;5003411;28;20057;-68
2023/07/12 03:31:22;;;;;;;0.20;0.00;;;16.80;99.90;;;;;;4995150;28;20043;-68
2023/07/12 03:33:47;;;;;;;0.17;0.10;;;16.80;99.90;;;;;;5006096;28;20596;-68
2023/07/12 03:36:15;;;;;;;0.00;0.00;;;16.70;99.90;;;;;;5003749;28;20038;-68
2023/07/12 03:38:41;;;;;;;0.38;0.10;;;16.80;99.90;;;;;;5004981;28;20039;-69
2023/07/12 03:41:09;;;;;;;0.85;0.10;;;16.80;99.90;;;;;;5001386;28;20034;-68
2023/07/12 03:43:36;;;;;;;0.20;0.10;;;16.80;99.90;;;;;;5004748;28;20053;-68
2023/07/12 03:46:02;;;;;;;0.10;0.03;;;16.70;99.90;;;;;;5003732;28;20363;-69
2023/07/12 03:48:28;;;;;;;0.30;0.05;;;16.70;99.90;;;;;;5002463;28;20080;-69
2023/07/12 03:50:57;;;;;;;0.00;0.00;;;16.70;99.90;;;;;;4996650;28;20053;-68
2023/07/12 03:53:25;;;;;;;0.08;0.03;;;16.70;99.90;;;;;;5004430;28;20041;-68
2023/07/12 03:55:51;;;;;;;0.20;0.00;;;16.70;99.90;;;;;;5001123;28;20100;-68
2023/07/12 03:58:29;;;;;;;0.00;0.00;;;16.70;99.90;;;;;;4999220;28;20049;-68
2023/07/12 04:00:55;;;;;;;0.00;0.00;;;16.60;99.90;;;;;;5003736;28;20042;-69
2023/07/12 04:03:20;;;;;;;0.03;0.00;;;16.60;99.90;;;;;;5005211;28;20145;-69
2023/07/12 04:05:51;;;;;;;0.45;0.10;;;16.60;99.90;;;;;;5001264;28;20118;-68
2023/07/12 04:08:17;;;;;;;0.20;0.00;;;16.60;99.90;;;;;;5004242;28;20050;-68
2023/07/12 04:10:43;;;;;;;0.30;0.10;;;16.60;99.90;;;;;;5000852;28;20038;-69
2023/07/12 04:13:09;;;;;;;0.00;0.00;;;16.60;99.90;;;;;;5008519;28;20077;-69
2023/07/12 04:15:36;;;;;;;0.08;0.00;;;16.60;99.90;;;;;;5006313;28;20042;-69
2023/07/12 04:18:03;;;;;;;0.73;0.30;;;16.60;99.90;;;;;;5003515;28;20045;-69
2023/07/12 04:20:30;;;;;;;0.20;0.08;;;16.60;99.90;;;;;;5002600;28;20038;-68
2023/07/12 04:22:55;;;;;;;0.00;0.00;;;16.60;99.90;;;;;;5009262;28;20046;-68
2023/07/12 04:25:21;;;;;;;0.00;0.00;;;16.60;99.90;;;;;;5008667;28;20040;-68
2023/07/12 04:27:47;;;;;;;0.00;0.00;;;16.60;99.90;;;;;;5002242;28;20054;-68
2023/07/12 04:30:16;;;;;;;0.22;0.20;;;16.60;99.90;;;;;;5000796;28;20042;-68
2023/07/12 04:32:42;;;;;;;0.17;0.10;;;16.60;99.90;;;;;;5006683;28;20038;-68
2023/07/12 04:35:10;;;;;;;0.00;0.00;;;16.60;99.90;;;;;;5008322;28;20429;-68
2023/07/12 04:37:36;;;;;;;0.10;0.00;;;16.50;99.90;;;;;;5005578;28;20055;-68
2023/07/12 04:40:01;;;;;;;0.10;0.00;;;16.50;99.90;;;;;;4999923;28;20057;-68
2023/07/12 04:42:28;;;;;;;0.00;0.00;;;16.50;99.90;;;;;;5005789;28;20050;-68
2023/07/12 04:44:53;;;;;;;0.00;0.00;;;16.50;99.90;;;;;;5001307;28;20042;-69
2023/07/12 04:47:19;;;;;;;0.10;0.00;;;16.60;99.90;;;;;;5005132;28;20441;-68
2023/07/12 04:49:45;;;;;;;0.05;0.00;;;16.60;99.90;;;;;;4999350;28;20391;-68
2023/07/12 04:52:11;;;;;;;0.05;0.00;;;16.50;99.90;;;;;;5005875;28;20046;-68
2023/07/12 04:54:41;;;;;;;0.10;0.10;;;16.60;99.90;;;;;;5000513;28;20045;-68
2023/07/12 04:57:08;;;;;;;0.88;0.30;;;16.60;99.90;;;;;;4999556;28;20462;-68
2023/07/12 04:59:34;;;;;;;0.35;0.17;;;16.60;99.90;;;;;;5001545;28;20056;-68
2023/07/12 05:02:00;;;;;;;0.35;0.15;;;16.60;99.90;;;;;;5006826;28;20061;-68
2023/07/12 05:04:25;;;;;;;1.23;0.20;;;16.70;99.90;;;;;;5000258;28;20487;-68
2023/07/12 05:06:52;;;;;;;0.40;0.17;;;16.70;99.90;;;;;;5005442;28;20037;-68
2023/07/12 05:09:18;;;;;;;0.00;0.00;;;16.70;99.90;;;;;;5009765;28;20049;-68
2023/07/12 05:11:44;;;;;;;0.15;0.00;;;16.70;99.90;;;;;;5010480;28;20659;-69
2023/07/12 05:14:10;;;;;;;0.00;0.00;;;16.70;99.90;;;;;;5001501;28;20054;-68
2023/07/12 05:16:36;;;;;;;0.15;0.00;;;16.70;99.90;;;;;;4994321;28;20048;-68
2023/07/12 05:19:01;;;;;;;0.22;0.10;;;16.80;99.90;;;;;;5005943;28;20046;-68
2023/07/12 05:21:27;;;;;;;0.10;0.05;;;16.80;99.90;;;;;;5001753;28;20045;-68
2023/07/12 05:23:53;;;;;;;0.10;0.10;;;16.90;99.90;;;;;;5010422;28;20465;-68
2023/07/12 05:26:19;;;;;;;0.10;0.10;;;17.00;99.90;;;;;;5000278;28;20078;-68
2023/07/12 05:28:44;;;;;;;0.52;0.10;;;17.00;99.90;;;;;;5004565;28;20050;-68
2023/07/12 05:31:12;;;;;;;0.90;0.20;;;17.10;99.90;;;;;;5003980;28;20470;-68
2023/07/12 05:33:43;;;;;;;0.15;0.00;;;17.00;99.90;;;;;;5007584;28;20800;-68
2023/07/12 05:36:10;;;;;;;0.28;0.00;;;17.00;99.90;;;;;;5006948;28;20046;-68
2023/07/12 05:38:36;;;;;;;0.60;0.20;;;17.00;99.90;;;;;;5010078;28;20033;-68
2023/07/12 05:41:02;;;;;;;0.40;0.20;;;17.00;99.90;;;;;;5008502;28;20084;-69
2023/07/12 05:43:28;;;;;;;0.47;0.10;;;17.10;99.90;;;;;;5003594;28;20409;-68
2023/07/12 05:45:57;;;;;;;0.43;0.20;;;17.10;99.90;;;;;;5003724;28;20120;-68
2023/07/12 05:48:24;;;;;;;0.30;0.10;;;17.10;99.90;;;;;;5010546;28;20041;-68
2023/07/12 05:50:54;;;;;;;0.40;0.10;;;17.20;99.90;;;;;;5007095;28;20147;-68
2023/07/12 05:53:21;;;;;;;0.30;0.15;;;17.20;99.90;;;;;;4988470;28;20125;-69
2023/07/12 05:55:46;;;;;;;0.10;0.10;;;17.30;99.90;;;;;;5005825;28;20040;-69
2023/07/12 05:58:12;;;;;;;0.57;0.20;;;17.20;99.90;;;;;;5009090;28;20441;-68
2023/07/12 06:00:41;;;;;;;0.20;0.10;;;17.20;99.90;;;;;;5007062;28;20407;-68
2023/07/12 06:03:06;;;;;;;0.40;0.20;;;17.30;99.90;;;;;;5005966;28;20054;-69
2023/07/12 06:05:33;;;;;;;0.10;0.10;;;17.40;99.90;;;;;;5007647;28;20053;-69
2023/07/12 06:07:58;;;;;;;0.10;0.10;;;17.40;99.90;;;;;;5004052;28;20521;-68
2023/07/12 06:10:24;;;;;;;0.30;0.20;;;17.40;99.90;;;;;;5006835;28;20034;-68
2023/07/12 06:12:50;;;;;;;0.28;0.20;;;17.30;99.90;;;;;;5006162;28;20048;-68
2023/07/12 06:15:16;;;;;;;0.52;0.30;;;17.40;99.90;;;;;;5007856;28;20040;-69
2023/07/12 06:17:43;;;;;;;0.32;0.30;;;17.40;99.90;;;;;;5002149;28;20360;-68
2023/07/12 06:20:09;;;;;;;0.00;0.00;;;17.40;99.90;;;;;;5001723;28;20523;-69
2023/07/12 06:22:35;;;;;;;0.20;0.10;;;17.40;99.90;;;;;;4996658;28;20128;-69
2023/07/12 06:25:00;;;;;;;0.10;0.10;;;17.40;99.90;;;;;;5004590;28;20121;-69
2023/07/12 06:27:26;;;;;;;1.65;0.10;;;17.50;99.90;;;;;;4999128;28;20046;-68
2023/07/12 06:29:52;;;;;;;3.08;1.15;;;17.50;99.90;;;;;;5004296;28;20415;-69
2023/07/12 06:32:17;;;;;;;0.30;0.20;;;17.60;99.90;;;;;;4997248;28;20045;-68
2023/07/12 06:34:43;;;;;;;0.75;0.20;;;17.70;99.90;;;;;;5003621;28;20045;-68
2023/07/12 06:37:09;;;;;;;0.73;0.20;;;17.70;99.90;;;;;;5003077;28;20046;-68
2023/07/12 06:39:36;;;;;;;0.10;0.10;;;17.90;99.90;;;;;;5004275;28;20069;-69
2023/07/12 06:42:02;;;;;;;0.10;0.10;;;18.00;99.90;;;;;;5005093;28;20108;-68
2023/07/12 06:44:28;;;;;;;0.30;0.20;;;18.00;99.90;;;;;;5000501;28;20046;-68
2023/07/12 06:46:53;;;;;;;0.30;0.20;;;17.90;99.90;;;;;;5004002;28;20112;-68
2023/07/12 06:49:19;;;;;;;0.40;0.35;;;18.00;99.90;;;;;;5005706;28;20041;-69
2023/07/12 06:51:46;;;;;;;0.75;0.32;;;18.10;99.90;;;;;;5000974;28;20117;-69
2023/07/12 06:54:16;;;;;;;0.55;0.32;;;18.00;99.90;;;;;;5001933;28;20092;-68
2023/07/12 06:56:42;;;;;;;0.43;0.40;;;18.10;99.90;;;;;;5003568;28;20076;-68
2023/07/12 06:59:09;;;;;;;0.32;0.15;;;18.10;99.90;;;;;;5016886;28;20045;-68
2023/07/12 07:01:34;;;;;;;2.38;0.80;;;18.30;99.90;;;;;;5003564;28;20054;-68
2023/07/12 07:04:00;;;;;;;5.30;2.78;;;18.40;99.90;;;;;;5005608;28;20073;-68
2023/07/12 07:06:26;;;;;;;0.63;0.38;;;18.50;99.90;;;;;;5005808;28;20046;-65
2023/07/12 07:08:52;;;;;;;0.75;0.32;;;18.50;99.90;;;;;;5001087;28;20096;-66
2023/07/12 07:11:18;;;;;;;0.82;0.63;;;18.50;99.90;;;;;;4994845;28;20038;-66
2023/07/12 07:13:43;;;;;;;0.85;0.20;;;18.50;99.90;;;;;;5004452;28;20129;-66
2023/07/12 07:16:10;;;;;;;0.68;0.22;;;18.40;99.90;;;;;;5006037;28;20037;-66
2023/07/12 07:18:36;;;;;;;0.20;0.20;;;18.40;99.90;;;;;;5000262;28;20088;-66
2023/07/12 07:21:03;;;;;;;0.35;0.20;;;18.50;99.90;;;;;;4999686;28;20449;-66
2023/07/12 07:23:29;;;;;;;0.13;0.10;;;18.60;99.90;;;;;;5001692;28;20398;-65
2023/07/12 07:26:00;;;;;;;0.60;0.20;;;18.60;99.90;;;;;;5003723;28;20046;-66
2023/07/12 07:28:26;;;;;;;0.85;0.65;;;18.60;99.90;;;;;;5006146;28;20482;-66
2023/07/12 07:30:56;;;;;;;2.55;0.75;;;18.60;99.90;;;;;;5006857;28;20153;-66
2023/07/12 07:33:22;;;;;;;0.50;0.45;;;18.60;99.90;;;;;;5008762;28;20477;-65
2023/07/12 07:35:48;;;;;;;0.47;0.40;;;18.70;99.90;;;;;;5007473;28;20034;-65
2023/07/12 07:38:13;;;;;;;1.17;0.40;;;18.80;99.90;;;;;;5005775;28;20037;-65
2023/07/12 07:40:40;;;;;;;0.32;0.20;;;19.00;99.90;;;;;;4998510;28;20069;-66
2023/07/12 07:43:07;;;;;;;0.32;0.30;;;19.20;99.90;;;;;;5007714;28;20045;-66
2023/07/12 07:45:33;;;;;;;0.20;0.20;;;19.30;99.90;;;;;;5004798;28;20045;-66
2023/07/12 07:47:58;;;;;;;0.30;0.28;;;19.40;99.90;;;;;;5000952;28;20073;-65
2023/07/12 07:50:24;;;;;;;0.63;0.20;;;19.40;99.90;;;;;;5007034;28;20263;-66
2023/07/12 07:52:52;;;;;;;0.32;0.30;;;19.50;99.90;;;;;;5007679;28;20038;-66
2023/07/12 07:55:18;;;;;;;0.80;0.38;;;19.50;99.90;;;;;;5004625;28;20069;-66
2023/07/12 07:57:44;;;;;;;0.25;0.20;;;19.60;99.90;;;;;;5005725;28;20030;-66
2023/07/12 08:00:11;;;;;;;0.43;0.30;;;19.70;99.90;;;;;;5005043;28;20490;-66
2023/07/12 08:02:37;;;;;;;0.10;0.10;;;19.90;99.90;;;;;;5008308;28;20046;-66
2023/07/12 08:05:03;;;;;;;2.10;0.30;;;20.10;99.90;;;;;;5005486;28;20070;-66
2023/07/12 08:07:29;;;;;;;0.17;0.13;;;20.30;99.90;;;;;;5002604;28;20086;-66
2023/07/12 08:09:55;;;;;;;0.38;0.30;;;20.50;99.90;;;;;;5006120;28;20049;-67
2023/07/12 08:12:21;;;;;;;0.30;0.20;;;20.60;99.90;;;;;;5007073;28;20053;-66
2023/07/12 08:14:46;;;;;;;0.28;0.20;;;20.80;99.90;;;;;;5004310;28;20145;-67
2023/07/12 08:17:12;;;;;;;0.57;0.20;;;20.80;99.90;;;;;;5005702;28;20030;-67
2023/07/12 08:19:38;;;;;;;1.65;0.38;;;20.80;99.90;;;;;;5004953;28;20034;-67
2023/07/12 08:22:04;;;;;;;0.30;0.20;;;20.80;99.90;;;;;;5010921;28;20038;-67
2023/07/12 08:24:29;;;;;;;0.55;0.40;;;20.80;99.90;;;;;;5007591;28;20410;-67
2023/07/12 08:26:55;;;;;;;0.28;0.28;;;20.70;99.90;;;;;;5001940;28;20041;-67
2023/07/12 08:29:21;;;;;;;0.25;0.20;;;20.60;99.90;;;;;;5013297;28;20168;-67
2023/07/12 08:31:46;;;;;;;0.20;0.10;;;20.40;99.90;;;;;;5011500;28;20029;-67
2023/07/12 08:34:12;;;;;;;0.50;0.38;;;20.40;99.90;;;;;;5008827;28;20049;-68
2023/07/12 08:36:38;;;;;;;0.55;0.20;;;20.40;99.90;;;;;;5008394;28;20037;-68
2023/07/12 08:39:04;;;;;;;0.43;0.30;;;20.50;99.90;;;;;;5011586;28;20084;-68
2023/07/12 08:41:30;;;;;;;1.63;0.52;;;20.60;99.90;;;;;;5012005;28;20124;-67
2023/07/12 08:43:56;;;;;;;0.00;0.00;;;20.60;99.90;;;;;;5008157;28;20120;-67
2023/07/12 08:46:25;;;;;;;0.25;0.20;;;20.50;99.90;;;;;;5005040;28;20046;-67
2023/07/12 08:48:59;;;;;;;1.45;0.70;;;20.40;99.90;;;;;;5010462;28;20208;-70
2023/07/12 08:51:31;;;;;;;0.13;0.10;;;20.20;99.90;;;;;;5007377;28;20077;-67
2023/07/12 08:53:57;;;;;;;0.28;0.20;;;19.80;99.90;;;;;;5009216;28;20483;-66
2023/07/12 08:56:24;;;;;;;0.30;0.20;;;19.50;99.90;;;;;;5008105;28;20510;-66
2023/07/12 08:58:53;;;;;;;1.77;0.38;;;19.20;99.90;;;;;;5004365;28;20046;-66
2023/07/12 09:01:40;;;;;;;0.35;0.22;;;19.00;99.90;;;;;;5002416;28;20049;-66
2023/07/12 09:04:23;;;;;;;0.17;0.15;;;18.90;99.90;;;;;;5000845;28;20038;-67
2023/07/12 09:06:53;;;;;;;0.40;0.20;;;18.80;99.90;;;;;;5000696;28;20079;-67
2023/07/12 09:09:19;;;;;;;0.00;0.00;;;18.80;99.90;;;;;;5006520;28;20160;-67
2023/07/12 09:11:46;;;;;;;0.73;0.10;;;18.80;99.90;;;;;;5009106;28;20078;-67
2023/07/12 09:14:22;;;;;;;0.43;0.30;;;18.80;99.90;;;;;;5002140;28;20121;-67
2023/07/12 09:16:59;;;;;;;0.30;0.20;;;18.90;99.90;;;;;;4999764;28;20125;-67
2023/07/12 09:19:30;;;;;;;0.10;0.10;;;19.10;99.90;;;;;;5007939;28;20100;-67
2023/07/12 09:22:13;;;;;;;0.00;0.00;;;19.20;99.90;;;;;;5002685;28;20042;-67
2023/07/12 09:24:43;;;;;;;0.35;0.17;;;19.30;99.90;;;;;;5002374;28;20557;-67
2023/07/12 09:27:18;;;;;;;0.40;0.40;;;19.70;99.90;;;;;;5002667;28;20532;-68
2023/07/12 09:29:43;;;;;;;0.20;0.10;;;20.10;99.90;;;;;;5007152;28;20045;-67
2023/07/12 09:32:27;;;;;;;0.10;0.10;;;20.40;99.90;;;;;;4997166;28;20042;-67
2023/07/12 09:34:54;;;;;;;0.40;0.30;;;20.60;99.90;;;;;;5007782;28;20042;-68
2023/07/12 09:37:24;;;;;;;0.00;0.00;;;20.70;99.90;;;;;;5002764;28;20375;-67
2023/07/12 09:39:53;;;;;;;0.35;0.10;;;20.70;99.90;;;;;;5003701;28;20053;-67
2023/07/12 09:42:18;;;;;;;0.50;0.20;;;20.80;99.90;;;;;;4996711;28;20053;-68
2023/07/12 09:44:46;;;;;;;0.30;0.20;;;21.00;99.90;;;;;;5005556;28;20038;-67
2023/07/12 09:48:00;;;;;;;0.30;0.20;;;21.30;99.90;;;;;;4999167;28;20113;-67
2023/07/12 09:50:39;;;;;;;0.17;0.10;;;21.50;99.90;;;;;;4995841;28;20441;-67
2023/07/12 09:53:32;;;;;;;0.10;0.10;;;21.60;99.90;;;;;;4995787;28;20082;-67
2023/07/12 09:56:06;;;;;;;0.30;0.25;;;21.20;99.90;;;;;;5004124;28;20038;-67
2023/07/12 09:58:48;;;;;;;0.20;0.10;;;20.80;99.90;;;;;;4999385;28;20088;-68
2023/07/12 10:01:40;;;;;;;0.10;0.03;;;20.30;99.90;;;;;;5004321;28;20422;-67
2023/07/12 10:04:37;;;;;;;2.28;0.10;;;19.80;99.90;;;;;;5008191;28;20128;-67
2023/07/12 10:07:14;;;;;;;0.35;0.05;;;19.60;99.90;;;;;;5001499;28;20556;-67
2023/07/12 10:09:45;;;;;;;0.10;0.10;;;19.50;99.90;;;;;;5002417;28;20113;-67
2023/07/12 10:12:23;;;;;;;0.10;0.08;;;19.60;99.90;;;;;;5000008;28;20049;-67
2023/07/12 10:14:51;;;;;;;0.10;0.00;;;19.80;99.90;;;;;;5006462;28;20053;-67
2023/07/12 10:17:39;;;;;;;0.05;0.00;;;19.80;99.90;;;;;;5000642;28;20499;-67
2023/07/12 10:20:05;;;;;;;0.35;0.00;;;19.70;99.90;;;;;;5002815;28;20038;-67
2023/07/12 10:22:38;;;;;;;0.15;0.10;;;19.70;99.90;;;;;;5003282;28;20112;-67
2023/07/12 10:25:25;;;;;;;0.88;0.17;;;19.70;99.90;;;;;;5005950;28;20038;-67
2023/07/12 10:28:00;;;;;;;0.10;0.05;;;20.20;99.90;;;;;;5000898;28;20042;-67
2023/07/12 10:30:28;;;;;;;0.15;0.10;;;20.90;99.90;;;;;;4997452;28;20057;-67
2023/07/12 10:33:00;;;;;;;0.17;0.10;;;21.40;99.90;;;;;;4997221;28;20050;-67
2023/07/12 10:35:38;;;;;;;0.30;0.20;;;22.00;99.90;;;;;;5004792;28;20046;-67
2023/07/12 10:38:16;;;;;;;0.13;0.05;;;22.40;99.90;;;;;;4994468;28;20047;-66
2023/07/12 10:40:59;;;;;;;0.20;0.10;;;22.60;99.90;;;;;;5002135;28;20061;-67
2023/07/12 10:43:35;;;;;;;0.08;0.08;;;22.80;99.90;;;;;;5004101;28;20674;-66
2023/07/12 10:46:14;;;;;;;0.00;0.00;;;22.80;99.90;;;;;;5003288;28;20033;-66
2023/07/12 10:48:49;;;;;;;0.13;0.08;;;22.80;99.90;;;;;;5003470;28;20077;-66
2023/07/12 10:51:39;;;;;;;0.00;0.00;;;22.70;99.90;;;;;;5006970;28;20342;-66
2023/07/12 10:54:21;;;;;;;1.95;0.10;;;22.50;99.90;;;;;;5003616;28;20121;-66
2023/07/12 10:56:53;;;;;;;1.08;0.28;;;22.10;99.90;;;;;;5003749;28;20188;-66
2023/07/12 10:59:31;;;;;;;0.10;0.00;;;21.90;99.90;;;;;;5007723;28;20042;-66
2023/07/12 11:02:26;;;;;;;0.00;0.00;;;22.20;99.90;;;;;;5000426;28;20171;-66
2023/07/12 11:04:52;;;;;;;0.30;0.00;;;22.40;99.90;;;;;;5004178;28;20113;-66
2023/07/12 11:07:18;;;;;;;0.30;0.20;;;22.40;99.90;;;;;;4998544;28;20455;-66
2023/07/12 11:09:43;;;;;;;0.50;0.50;;;22.20;99.90;;;;;;5003634;28;20038;-66
2023/07/12 11:12:14;;;;;;;0.38;0.20;;;21.80;99.90;;;;;;4997415;28;20406;-66
2023/07/12 11:14:41;;;;;;;1.75;0.65;;;21.60;99.90;;;;;;5007506;28;20038;-66
2023/07/12 11:17:06;;;;;;;0.85;0.10;;;21.60;99.90;;;;;;5005068;28;20041;-66
2023/07/12 11:19:40;;;;;;;0.20;0.20;;;21.70;99.90;;;;;;5008457;28;20046;-67
2023/07/12 11:22:18;;;;;;;0.20;0.08;;;21.80;99.90;;;;;;5001627;28;20042;-67
2023/07/12 11:24:56;;;;;;;0.20;0.20;;;21.70;99.90;;;;;;5001789;28;20034;-67
2023/07/12 11:27:46;;;;;;;0.10;0.03;;;21.90;99.90;;;;;;4991765;28;20105;-67
2023/07/12 11:30:20;;;;;;;0.15;0.15;;;22.40;99.90;;;;;;5004153;28;20045;-67
2023/07/12 11:32:47;;;;;;;0.47;0.20;;;22.70;99.90;;;;;;4998969;28;20050;-67
2023/07/12 11:35:19;;;;;;;0.10;0.10;;;23.00;99.90;;;;;;4997906;28;20458;-68
2023/07/12 11:37:48;;;;;;;0.00;0.00;;;23.40;99.90;;;;;;4998878;28;20122;-68
2023/07/12 11:40:31;;;;;;;0.32;0.20;;;23.80;99.90;;;;;;5000197;28;20108;-68
2023/07/12 11:43:28;;;;;;;0.22;0.08;;;24.30;99.90;;;;;;5005774;28;20056;-68
2023/07/12 11:45:56;;;;;;;0.10;0.10;;;24.60;99.90;;;;;;4999119;28;20564;-67
2023/07/12 11:48:24;;;;;;;1.75;0.10;;;24.80;99.90;;;;;;4996563;28;20064;-68
2023/07/12 11:50:52;;;;;;;0.08;0.00;;;24.70;99.90;;;;;;5003500;28;20106;-68
2023/07/12 11:53:19;;;;;;;0.00;0.00;;;24.70;99.90;;;;;;5016044;28;20042;-68
2023/07/12 11:55:49;;;;;;;0.00;0.00;;;24.40;99.90;;;;;;4998797;28;20124;-68
2023/07/12 11:58:22;;;;;;;0.17;0.08;;;23.80;99.90;;;;;;5002711;28;20038;-68
2023/07/12 12:00:50;;;;;;;0.00;0.00;;;23.60;99.90;;;;;;5008294;28;20046;-68
2023/07/12 12:03:17;;;;;;;0.00;0.00;;;23.60;99.90;;;;;;5000406;28;20084;-68
2023/07/12 12:05:44;;;;;;;0.05;0.00;;;24.00;99.90;;;;;;5001749;28;20054;-68
2023/07/12 12:08:19;;;;;;;0.08;0.00;;;24.30;99.90;;;;;;5002497;28;20068;-68
2023/07/12 12:10:48;;;;;;;0.10;0.10;;;24.70;99.90;;;;;;5005686;28;20034;-68
2023/07/12 12:13:23;;;;;;;1.15;0.22;;;24.70;99.90;;;;;;5005753;28;20099;-69
2023/07/12 12:16:18;;;;;;;0.70;0.08;;;24.20;99.90;;;;;;5001396;28;20037;-69
2023/07/12 12:18:53;;;;;;;0.08;0.00;;;24.30;99.90;;;;;;5005593;28;20548;-68
2023/07/12 12:21:19;;;;;;;0.00;0.00;;;24.10;99.90;;;;;;5002077;28;20400;-68
2023/07/12 12:24:06;;;;;;;0.47;0.40;;;23.90;99.90;;;;;;5001424;28;20053;-68
2023/07/12 12:26:34;;;;;;;0.00;0.00;;;23.40;99.90;;;;;;5006936;28;20103;-68
2023/07/12 12:29:14;;;;;;;0.20;0.10;;;23.00;99.90;;;;;;5011370;28;20045;-67
2023/07/12 12:31:53;;;;;;;0.00;0.00;;;22.90;99.90;;;;;;5010270;28;20417;-67
2023/07/12 12:34:20;;;;;;;0.00;0.00;;;23.20;99.90;;;;;;5004617;28;20466;-67
2023/07/12 12:37:00;;;;;;;0.10;0.00;;;23.80;99.90;;;;;;5008733;28;20141;-68
2023/07/12 12:39:27;;;;;;;0.00;0.00;;;24.00;99.90;;;;;;5004434;28;20042;-68
2023/07/12 12:41:58;;;;;;;0.00;0.00;;;23.80;99.90;;;;;;5006018;28;20038;-67
2023/07/12 12:44:29;;;;;;;0.00;0.00;;;23.40;99.90;;;;;;5006485;28;20088;-68
2023/07/12 12:46:58;;;;;;;0.00;0.00;;;23.10;99.90;;;;;;5011838;28;20951;-67
2023/07/12 12:49:30;;;;;;;0.00;0.00;;;22.70;99.90;;;;;;5011723;28;20026;-67
2023/07/12 12:52:17;;;;;;;1.35;0.28;;;22.60;99.90;;;;;;5009365;28;20050;-68
2023/07/12 12:54:43;;;;;;;0.20;0.08;;;22.90;99.90;;;;;;5010978;28;20520;-70
2023/07/12 12:57:08;;;;;;;0.00;0.00;;;23.50;99.90;;;;;;5009599;28;20034;-70